sensor_id;sensor_type;location;lat;lon;timestamp;P1;durP1;ratioP1;P2;durP2;ratioP2
13989;SDS011;7069;52.528;13.316;2022-10-26T00:01:02;6.40;;;5.87;;
13989;SDS011;7069;52.528;13.316;2022-10-26T00:03:29;8.13;;;5.73;;
13989;SDS011;7069;52.528;13.316;2022-10-26T00:06:01;7.00;;;6.23;;
13989;SDS011;7069;52.528;13.316;2022-10-26T00:08:28;7.00;;;6.40;;
13989;SDS011;7069;52.528;13.316;2022-10-26T00:10:55;6.20;;;5.63;;
13989;SDS011;7069;52.528;13.316;2022-10-26T00:13:24;7.90;;;5.90;;
13989;SDS011;7069;52.528;13.316;2022-10-26T00:15:50;7.73;;;6.40;;
13989;SDS011;7069;52.528;13.316;2022-10-26T00:18:17;7.67;;;6.77;;
13989;SDS011;7069;52.528;13.316;2022-10-26T00:20:43;8.20;;;5.97;;
13989;SDS011;7069;52.528;13.316;2022-10-26T00:23:09;6.30;;;5.80;;
13989;SDS011;7069;52.528;13.316;2022-10-26T00:25:36;13.63;;;7.23;;
13989;SDS011;7069;52.528;13.316;2022-10-26T00:28:03;7.90;;;6.33;;
13989;SDS011;7069;52.528;13.316;2022-10-26T00:30:31;5.83;;;5.23;;
13989;SDS011;7069;52.528;13.316;2022-10-26T00:32:57;5.70;;;5.13;;
13989;SDS011;7069;52.528;13.316;2022-10-26T00:35:24;9.20;;;5.87;;
13989;SDS011;7069;52.528;13.316;2022-10-26T00:37:53;7.27;;;6.10;;
13989;SDS011;7069;52.528;13.316;2022-10-26T00:40:20;8.23;;;6.67;;
13989;SDS011;7069;52.528;13.316;2022-10-26T00:42:47;7.00;;;6.30;;
13989;SDS011;7069;52.528;13.316;2022-10-26T00:45:15;6.00;;;5.47;;
13989;SDS011;7069;52.528;13.316;2022-10-26T00:47:47;5.97;;;5.07;;
13989;SDS011;7069;52.528;13.316;2022-10-26T00:50:16;7.47;;;6.23;;
13989;SDS011;7069;52.528;13.316;2022-10-26T00:52:44;6.43;;;5.77;;
13989;SDS011;7069;52.528;13.316;2022-10-26T00:55:11;8.53;;;6.80;;
13989;SDS011;7069;52.528;13.316;2022-10-26T00:57:38;10.03;;;7.50;;
13989;SDS011;7069;52.528;13.316;2022-10-26T01:00:05;8.83;;;6.30;;
13989;SDS011;7069;52.528;13.316;2022-10-26T01:02:33;9.40;;;7.30;;
13989;SDS011;7069;52.528;13.316;2022-10-26T01:05:01;9.87;;;6.00;;
13989;SDS011;7069;52.528;13.316;2022-10-26T01:07:28;10.17;;;7.17;;
13989;SDS011;7069;52.528;13.316;2022-10-26T01:09:55;6.60;;;5.47;;
13989;SDS011;7069;52.528;13.316;2022-10-26T01:12:22;7.77;;;6.13;;
13989;SDS011;7069;52.528;13.316;2022-10-26T01:14:49;11.57;;;6.43;;
13989;SDS011;7069;52.528;13.316;2022-10-26T01:17:19;11.05;;;6.82;;
13989;SDS011;7069;52.528;13.316;2022-10-26T01:20:10;8.63;;;6.30;;
13989;SDS011;7069;52.528;13.316;2022-10-26T01:22:53;10.20;;;6.57;;
13989;SDS011;7069;52.528;13.316;2022-10-26T01:25:27;8.33;;;6.07;;
13989;SDS011;7069;52.528;13.316;2022-10-26T01:28:06;8.30;;;5.97;;
13989;SDS011;7069;52.528;13.316;2022-10-26T01:30:42;6.37;;;5.77;;
13989;SDS011;7069;52.528;13.316;2022-10-26T01:33:21;8.60;;;6.70;;
13989;SDS011;7069;52.528;13.316;2022-10-26T01:35:52;7.07;;;6.03;;
13989;SDS011;7069;52.528;13.316;2022-10-26T01:38:26;6.90;;;6.03;;
13989;SDS011;7069;52.528;13.316;2022-10-26T01:40:58;8.53;;;6.77;;
13989;SDS011;7069;52.528;13.316;2022-10-26T01:43:29;5.78;;;5.28;;
13989;SDS011;7069;52.528;13.316;2022-10-26T01:46:00;8.93;;;5.83;;
13989;SDS011;7069;52.528;13.316;2022-10-26T01:48:28;9.83;;;6.10;;
13989;SDS011;7069;52.528;13.316;2022-10-26T01:50:55;5.90;;;5.40;;
13989;SDS011;7069;52.528;13.316;2022-10-26T01:53:23;6.33;;;5.73;;
13989;SDS011;7069;52.528;13.316;2022-10-26T01:55:52;7.30;;;6.10;;
13989;SDS011;7069;52.528;13.316;2022-10-26T01:58:30;6.77;;;4.97;;
13989;SDS011;7069;52.528;13.316;2022-10-26T02:01:21;7.47;;;5.87;;
13989;SDS011;7069;52.528;13.316;2022-10-26T02:04:10;5.83;;;5.20;;
13989;SDS011;7069;52.528;13.316;2022-10-26T02:06:48;6.43;;;5.83;;
13989;SDS011;7069;52.528;13.316;2022-10-26T02:09:19;6.27;;;5.77;;
13989;SDS011;7069;52.528;13.316;2022-10-26T02:11:50;6.20;;;5.70;;
13989;SDS011;7069;52.528;13.316;2022-10-26T02:14:19;6.43;;;5.90;;
13989;SDS011;7069;52.528;13.316;2022-10-26T02:16:53;6.47;;;5.87;;
13989;SDS011;7069;52.528;13.316;2022-10-26T02:22:09;6.20;;;5.57;;
13989;SDS011;7069;52.528;13.316;2022-10-26T02:24:39;8.73;;;5.67;;
13989;SDS011;7069;52.528;13.316;2022-10-26T02:27:07;7.20;;;5.80;;
13989;SDS011;7069;52.528;13.316;2022-10-26T02:29:38;6.57;;;5.97;;
13989;SDS011;7069;52.528;13.316;2022-10-26T02:32:08;6.33;;;5.77;;
13989;SDS011;7069;52.528;13.316;2022-10-26T02:34:36;9.77;;;5.70;;
13989;SDS011;7069;52.528;13.316;2022-10-26T02:37:04;10.73;;;6.40;;
13989;SDS011;7069;52.528;13.316;2022-10-26T02:39:32;5.83;;;5.20;;
13989;SDS011;7069;52.528;13.316;2022-10-26T02:42:00;6.73;;;5.47;;
13989;SDS011;7069;52.528;13.316;2022-10-26T02:44:29;6.67;;;5.30;;
13989;SDS011;7069;52.528;13.316;2022-10-26T02:46:58;10.20;;;6.37;;
13989;SDS011;7069;52.528;13.316;2022-10-26T02:49:26;7.30;;;6.27;;
13989;SDS011;7069;52.528;13.316;2022-10-26T02:51:55;6.90;;;6.20;;
13989;SDS011;7069;52.528;13.316;2022-10-26T02:54:28;6.27;;;5.77;;
13989;SDS011;7069;52.528;13.316;2022-10-26T02:56:59;7.00;;;5.90;;
13989;SDS011;7069;52.528;13.316;2022-10-26T02:59:28;8.97;;;5.97;;
13989;SDS011;7069;52.528;13.316;2022-10-26T03:01:58;10.77;;;7.07;;
13989;SDS011;7069;52.528;13.316;2022-10-26T03:04:30;7.10;;;6.40;;
13989;SDS011;7069;52.528;13.316;2022-10-26T03:06:57;9.03;;;6.90;;
13989;SDS011;7069;52.528;13.316;2022-10-26T03:09:24;6.77;;;6.07;;
13989;SDS011;7069;52.528;13.316;2022-10-26T03:11:51;6.07;;;5.47;;
13989;SDS011;7069;52.528;13.316;2022-10-26T03:14:18;6.30;;;5.80;;
13989;SDS011;7069;52.528;13.316;2022-10-26T03:16:45;6.53;;;5.80;;
13989;SDS011;7069;52.528;13.316;2022-10-26T03:19:12;6.87;;;6.27;;
13989;SDS011;7069;52.528;13.316;2022-10-26T03:21:40;6.53;;;5.90;;
13989;SDS011;7069;52.528;13.316;2022-10-26T03:24:07;7.07;;;6.07;;
13989;SDS011;7069;52.528;13.316;2022-10-26T03:26:34;7.07;;;6.37;;
13989;SDS011;7069;52.528;13.316;2022-10-26T03:29:00;5.97;;;5.40;;
13989;SDS011;7069;52.528;13.316;2022-10-26T03:31:27;8.53;;;6.33;;
13989;SDS011;7069;52.528;13.316;2022-10-26T03:33:54;9.73;;;6.30;;
13989;SDS011;7069;52.528;13.316;2022-10-26T03:36:21;11.80;;;7.43;;
13989;SDS011;7069;52.528;13.316;2022-10-26T03:38:49;9.70;;;6.03;;
13989;SDS011;7069;52.528;13.316;2022-10-26T03:41:15;6.23;;;5.50;;
13989;SDS011;7069;52.528;13.316;2022-10-26T03:43:42;7.47;;;5.37;;
13989;SDS011;7069;52.528;13.316;2022-10-26T03:46:09;6.70;;;4.80;;
13989;SDS011;7069;52.528;13.316;2022-10-26T03:48:36;10.63;;;6.63;;
13989;SDS011;7069;52.528;13.316;2022-10-26T03:51:05;7.07;;;5.47;;
13989;SDS011;7069;52.528;13.316;2022-10-26T03:53:32;6.23;;;5.47;;
13989;SDS011;7069;52.528;13.316;2022-10-26T03:56:00;8.07;;;5.90;;
13989;SDS011;7069;52.528;13.316;2022-10-26T03:58:27;5.30;;;4.80;;
13989;SDS011;7069;52.528;13.316;2022-10-26T04:00:54;8.63;;;5.67;;
13989;SDS011;7069;52.528;13.316;2022-10-26T04:03:21;7.87;;;6.37;;
13989;SDS011;7069;52.528;13.316;2022-10-26T04:05:48;6.00;;;5.33;;
13989;SDS011;7069;52.528;13.316;2022-10-26T04:08:15;5.67;;;5.17;;
13989;SDS011;7069;52.528;13.316;2022-10-26T04:10:41;5.83;;;5.23;;
13989;SDS011;7069;52.528;13.316;2022-10-26T04:13:12;6.17;;;5.57;;
13989;SDS011;7069;52.528;13.316;2022-10-26T04:15:40;7.13;;;5.37;;
13989;SDS011;7069;52.528;13.316;2022-10-26T04:18:07;8.00;;;5.87;;
13989;SDS011;7069;52.528;13.316;2022-10-26T04:20:37;6.70;;;6.10;;
13989;SDS011;7069;52.528;13.316;2022-10-26T04:23:06;9.10;;;5.60;;
13989;SDS011;7069;52.528;13.316;2022-10-26T04:25:36;6.17;;;5.67;;
13989;SDS011;7069;52.528;13.316;2022-10-26T04:28:03;6.43;;;5.70;;
13989;SDS011;7069;52.528;13.316;2022-10-26T04:30:33;10.20;;;5.43;;
13989;SDS011;7069;52.528;13.316;2022-10-26T04:33:00;11.50;;;5.63;;
13989;SDS011;7069;52.528;13.316;2022-10-26T04:35:27;8.17;;;6.30;;
13989;SDS011;7069;52.528;13.316;2022-10-26T04:37:57;6.87;;;5.27;;
13989;SDS011;7069;52.528;13.316;2022-10-26T04:40:25;8.43;;;6.50;;
13989;SDS011;7069;52.528;13.316;2022-10-26T04:42:52;7.53;;;6.23;;
13989;SDS011;7069;52.528;13.316;2022-10-26T04:45:18;7.00;;;6.37;;
13989;SDS011;7069;52.528;13.316;2022-10-26T04:47:48;6.43;;;5.47;;
13989;SDS011;7069;52.528;13.316;2022-10-26T04:50:24;8.13;;;6.10;;
13989;SDS011;7069;52.528;13.316;2022-10-26T04:52:52;7.43;;;5.63;;
13989;SDS011;7069;52.528;13.316;2022-10-26T04:55:19;6.70;;;6.00;;
13989;SDS011;7069;52.528;13.316;2022-10-26T04:57:45;7.03;;;6.43;;
13989;SDS011;7069;52.528;13.316;2022-10-26T05:00:13;10.57;;;6.37;;
13989;SDS011;7069;52.528;13.316;2022-10-26T05:02:39;7.00;;;6.30;;
13989;SDS011;7069;52.528;13.316;2022-10-26T05:05:08;7.37;;;6.67;;
13989;SDS011;7069;52.528;13.316;2022-10-26T05:07:35;9.47;;;6.83;;
13989;SDS011;7069;52.528;13.316;2022-10-26T05:10:02;9.93;;;7.13;;
13989;SDS011;7069;52.528;13.316;2022-10-26T05:12:30;8.17;;;5.73;;
13989;SDS011;7069;52.528;13.316;2022-10-26T05:14:56;7.27;;;6.43;;
13989;SDS011;7069;52.528;13.316;2022-10-26T05:17:23;12.13;;;7.27;;
13989;SDS011;7069;52.528;13.316;2022-10-26T05:19:50;7.60;;;6.00;;
13989;SDS011;7069;52.528;13.316;2022-10-26T05:22:21;9.40;;;6.63;;
13989;SDS011;7069;52.528;13.316;2022-10-26T05:24:52;8.57;;;6.90;;
13989;SDS011;7069;52.528;13.316;2022-10-26T05:27:19;8.90;;;7.60;;
13989;SDS011;7069;52.528;13.316;2022-10-26T05:29:47;10.67;;;7.50;;
13989;SDS011;7069;52.528;13.316;2022-10-26T05:32:14;7.57;;;6.70;;
13989;SDS011;7069;52.528;13.316;2022-10-26T05:34:41;8.70;;;6.30;;
13989;SDS011;7069;52.528;13.316;2022-10-26T05:37:08;8.87;;;6.47;;
13989;SDS011;7069;52.528;13.316;2022-10-26T05:39:36;10.60;;;7.20;;
13989;SDS011;7069;52.528;13.316;2022-10-26T05:42:03;9.50;;;6.33;;
13989;SDS011;7069;52.528;13.316;2022-10-26T05:44:30;7.57;;;6.67;;
13989;SDS011;7069;52.528;13.316;2022-10-26T05:46:57;14.20;;;6.67;;
13989;SDS011;7069;52.528;13.316;2022-10-26T05:49:24;9.87;;;7.03;;
13989;SDS011;7069;52.528;13.316;2022-10-26T05:51:51;8.27;;;6.73;;
13989;SDS011;7069;52.528;13.316;2022-10-26T05:54:18;6.97;;;6.27;;
13989;SDS011;7069;52.528;13.316;2022-10-26T05:56:47;8.03;;;7.27;;
13989;SDS011;7069;52.528;13.316;2022-10-26T05:59:14;7.57;;;6.80;;
13989;SDS011;7069;52.528;13.316;2022-10-26T06:01:54;9.40;;;7.20;;
13989;SDS011;7069;52.528;13.316;2022-10-26T06:04:29;6.23;;;5.43;;
13989;SDS011;7069;52.528;13.316;2022-10-26T06:07:00;10.97;;;7.73;;
13989;SDS011;7069;52.528;13.316;2022-10-26T06:09:28;9.53;;;6.47;;
13989;SDS011;7069;52.528;13.316;2022-10-26T06:11:59;7.90;;;5.80;;
13989;SDS011;7069;52.528;13.316;2022-10-26T06:14:27;8.70;;;6.10;;
13989;SDS011;7069;52.528;13.316;2022-10-26T06:16:58;6.63;;;5.90;;
13989;SDS011;7069;52.528;13.316;2022-10-26T06:19:38;8.03;;;5.87;;
13989;SDS011;7069;52.528;13.316;2022-10-26T06:22:15;7.13;;;5.53;;
13989;SDS011;7069;52.528;13.316;2022-10-26T06:24:49;5.93;;;5.23;;
13989;SDS011;7069;52.528;13.316;2022-10-26T06:27:24;6.50;;;5.50;;
13989;SDS011;7069;52.528;13.316;2022-10-26T06:29:56;6.37;;;5.77;;
13989;SDS011;7069;52.528;13.316;2022-10-26T06:32:26;6.33;;;5.57;;
13989;SDS011;7069;52.528;13.316;2022-10-26T06:34:54;6.03;;;5.07;;
13989;SDS011;7069;52.528;13.316;2022-10-26T06:37:27;5.63;;;5.10;;
13989;SDS011;7069;52.528;13.316;2022-10-26T06:39:54;7.50;;;6.70;;
13989;SDS011;7069;52.528;13.316;2022-10-26T06:42:24;5.83;;;5.07;;
13989;SDS011;7069;52.528;13.316;2022-10-26T06:44:52;6.03;;;5.43;;
13989;SDS011;7069;52.528;13.316;2022-10-26T06:47:20;9.00;;;6.03;;
13989;SDS011;7069;52.528;13.316;2022-10-26T06:49:54;7.23;;;6.20;;
13989;SDS011;7069;52.528;13.316;2022-10-26T06:52:26;8.30;;;7.47;;
13989;SDS011;7069;52.528;13.316;2022-10-26T06:54:55;6.77;;;5.80;;
13989;SDS011;7069;52.528;13.316;2022-10-26T06:57:26;6.10;;;5.60;;
13989;SDS011;7069;52.528;13.316;2022-10-26T06:59:55;8.40;;;6.53;;
13989;SDS011;7069;52.528;13.316;2022-10-26T07:02:24;9.17;;;6.80;;
13989;SDS011;7069;52.528;13.316;2022-10-26T07:04:51;7.97;;;6.67;;
13989;SDS011;7069;52.528;13.316;2022-10-26T07:07:19;13.77;;;6.17;;
13989;SDS011;7069;52.528;13.316;2022-10-26T07:09:46;9.97;;;6.73;;
13989;SDS011;7069;52.528;13.316;2022-10-26T07:12:13;7.93;;;6.33;;
13989;SDS011;7069;52.528;13.316;2022-10-26T07:14:42;8.43;;;6.63;;
13989;SDS011;7069;52.528;13.316;2022-10-26T07:17:09;9.37;;;6.40;;
13989;SDS011;7069;52.528;13.316;2022-10-26T07:19:36;7.00;;;6.30;;
13989;SDS011;7069;52.528;13.316;2022-10-26T07:22:04;9.40;;;5.97;;
13989;SDS011;7069;52.528;13.316;2022-10-26T07:24:31;8.93;;;7.10;;
13989;SDS011;7069;52.528;13.316;2022-10-26T07:26:58;8.40;;;6.50;;
13989;SDS011;7069;52.528;13.316;2022-10-26T07:29:25;7.43;;;5.18;;
13989;SDS011;7069;52.528;13.316;2022-10-26T07:31:54;9.35;;;6.50;;
13989;SDS011;7069;52.528;13.316;2022-10-26T07:34:21;9.10;;;6.17;;
13989;SDS011;7069;52.528;13.316;2022-10-26T07:36:50;8.53;;;5.43;;
13989;SDS011;7069;52.528;13.316;2022-10-26T07:39:17;9.47;;;6.93;;
13989;SDS011;7069;52.528;13.316;2022-10-26T07:41:44;9.30;;;5.90;;
13989;SDS011;7069;52.528;13.316;2022-10-26T07:44:11;6.32;;;5.60;;
13989;SDS011;7069;52.528;13.316;2022-10-26T07:46:38;7.20;;;5.97;;
13989;SDS011;7069;52.528;13.316;2022-10-26T07:49:06;10.87;;;7.50;;
13989;SDS011;7069;52.528;13.316;2022-10-26T07:51:33;9.57;;;6.25;;
13989;SDS011;7069;52.528;13.316;2022-10-26T07:54:00;9.70;;;6.80;;
13989;SDS011;7069;52.528;13.316;2022-10-26T07:56:27;7.78;;;7.00;;
13989;SDS011;7069;52.528;13.316;2022-10-26T07:58:55;7.15;;;6.45;;
13989;SDS011;7069;52.528;13.316;2022-10-26T08:01:22;6.20;;;5.60;;
13989;SDS011;7069;52.528;13.316;2022-10-26T08:03:50;9.23;;;5.88;;
13989;SDS011;7069;52.528;13.316;2022-10-26T08:06:19;6.75;;;5.90;;
13989;SDS011;7069;52.528;13.316;2022-10-26T08:08:47;7.25;;;6.55;;
13989;SDS011;7069;52.528;13.316;2022-10-26T08:11:14;6.95;;;6.28;;
13989;SDS011;7069;52.528;13.316;2022-10-26T08:13:42;7.47;;;6.25;;
13989;SDS011;7069;52.528;13.316;2022-10-26T08:16:09;5.68;;;5.18;;
13989;SDS011;7069;52.528;13.316;2022-10-26T08:18:36;9.40;;;6.32;;
13989;SDS011;7069;52.528;13.316;2022-10-26T08:21:03;9.50;;;6.43;;
13989;SDS011;7069;52.528;13.316;2022-10-26T08:23:33;7.53;;;6.07;;
13989;SDS011;7069;52.528;13.316;2022-10-26T08:26:00;8.75;;;6.45;;
13989;SDS011;7069;52.528;13.316;2022-10-26T08:28:27;7.40;;;5.50;;
13989;SDS011;7069;52.528;13.316;2022-10-26T08:30:54;11.85;;;7.90;;
13989;SDS011;7069;52.528;13.316;2022-10-26T08:33:22;8.80;;;6.20;;
13989;SDS011;7069;52.528;13.316;2022-10-26T08:35:53;6.15;;;5.55;;
13989;SDS011;7069;52.528;13.316;2022-10-26T08:38:20;6.47;;;5.35;;
13989;SDS011;7069;52.528;13.316;2022-10-26T08:40:49;7.93;;;5.90;;
13989;SDS011;7069;52.528;13.316;2022-10-26T08:43:18;9.02;;;6.38;;
13989;SDS011;7069;52.528;13.316;2022-10-26T08:45:49;8.93;;;5.65;;
13989;SDS011;7069;52.528;13.316;2022-10-26T08:48:19;8.60;;;7.45;;
13989;SDS011;7069;52.528;13.316;2022-10-26T08:50:48;8.02;;;6.05;;
13989;SDS011;7069;52.528;13.316;2022-10-26T08:53:19;6.60;;;5.90;;
13989;SDS011;7069;52.528;13.316;2022-10-26T08:55:50;9.07;;;6.25;;
13989;SDS011;7069;52.528;13.316;2022-10-26T08:58:19;13.20;;;7.38;;
13989;SDS011;7069;52.528;13.316;2022-10-26T09:00:48;9.07;;;6.03;;
13989;SDS011;7069;52.528;13.316;2022-10-26T09:03:16;7.78;;;6.40;;
13989;SDS011;7069;52.528;13.316;2022-10-26T09:05:49;6.53;;;5.57;;
13989;SDS011;7069;52.528;13.316;2022-10-26T09:08:28;7.35;;;6.45;;
13989;SDS011;7069;52.528;13.316;2022-10-26T09:11:01;10.13;;;5.93;;
13989;SDS011;7069;52.528;13.316;2022-10-26T09:13:36;5.68;;;5.10;;
13989;SDS011;7069;52.528;13.316;2022-10-26T09:16:13;7.10;;;5.50;;
13989;SDS011;7069;52.528;13.316;2022-10-26T09:18:49;11.65;;;7.15;;
13989;SDS011;7069;52.528;13.316;2022-10-26T09:21:27;7.15;;;5.65;;
13989;SDS011;7069;52.528;13.316;2022-10-26T09:24:00;6.40;;;5.50;;
13989;SDS011;7069;52.528;13.316;2022-10-26T09:26:34;11.43;;;6.07;;
13989;SDS011;7069;52.528;13.316;2022-10-26T09:29:04;7.05;;;5.10;;
13989;SDS011;7069;52.528;13.316;2022-10-26T09:31:34;5.88;;;5.28;;
13989;SDS011;7069;52.528;13.316;2022-10-26T09:34:04;9.20;;;6.72;;
13989;SDS011;7069;52.528;13.316;2022-10-26T09:36:32;7.15;;;5.32;;
13989;SDS011;7069;52.528;13.316;2022-10-26T09:39:01;6.72;;;4.78;;
13989;SDS011;7069;52.528;13.316;2022-10-26T09:41:30;5.70;;;5.15;;
13989;SDS011;7069;52.528;13.316;2022-10-26T09:44:04;7.38;;;4.70;;
13989;SDS011;7069;52.528;13.316;2022-10-26T09:46:37;7.90;;;5.50;;
13989;SDS011;7069;52.528;13.316;2022-10-26T09:49:12;5.72;;;5.13;;
13989;SDS011;7069;52.528;13.316;2022-10-26T09:51:40;6.05;;;5.32;;
13989;SDS011;7069;52.528;13.316;2022-10-26T09:54:13;7.97;;;4.47;;
13989;SDS011;7069;52.528;13.316;2022-10-26T09:56:42;5.88;;;4.28;;
13989;SDS011;7069;52.528;13.316;2022-10-26T09:59:11;6.15;;;3.92;;
13989;SDS011;7069;52.528;13.316;2022-10-26T10:01:39;4.90;;;3.95;;
13989;SDS011;7069;52.528;13.316;2022-10-26T10:04:07;4.75;;;4.03;;
13989;SDS011;7069;52.528;13.316;2022-10-26T10:06:36;5.25;;;3.85;;
13989;SDS011;7069;52.528;13.316;2022-10-26T10:09:06;7.85;;;3.35;;
13989;SDS011;7069;52.528;13.316;2022-10-26T10:11:38;5.57;;;4.03;;
13989;SDS011;7069;52.528;13.316;2022-10-26T10:14:07;9.73;;;4.55;;
13989;SDS011;7069;52.528;13.316;2022-10-26T10:16:34;3.70;;;3.40;;
13989;SDS011;7069;52.528;13.316;2022-10-26T10:19:01;6.03;;;3.55;;
13989;SDS011;7069;52.528;13.316;2022-10-26T10:21:32;5.03;;;3.22;;
13989;SDS011;7069;52.528;13.316;2022-10-26T10:24:00;6.45;;;3.83;;
13989;SDS011;7069;52.528;13.316;2022-10-26T10:26:26;5.60;;;3.58;;
13989;SDS011;7069;52.528;13.316;2022-10-26T10:28:57;4.45;;;2.85;;
13989;SDS011;7069;52.528;13.316;2022-10-26T10:31:29;5.38;;;3.83;;
13989;SDS011;7069;52.528;13.316;2022-10-26T10:33:57;9.93;;;3.45;;
13989;SDS011;7069;52.528;13.316;2022-10-26T10:36:24;5.45;;;3.50;;
13989;SDS011;7069;52.528;13.316;2022-10-26T10:38:53;3.63;;;3.05;;
13989;SDS011;7069;52.528;13.316;2022-10-26T10:41:21;6.15;;;3.60;;
13989;SDS011;7069;52.528;13.316;2022-10-26T10:43:51;3.78;;;3.22;;
13989;SDS011;7069;52.528;13.316;2022-10-26T10:46:20;3.45;;;3.15;;
13989;SDS011;7069;52.528;13.316;2022-10-26T10:48:51;4.05;;;3.00;;
13989;SDS011;7069;52.528;13.316;2022-10-26T10:51:20;4.70;;;2.97;;
13989;SDS011;7069;52.528;13.316;2022-10-26T10:53:48;5.05;;;3.70;;
13989;SDS011;7069;52.528;13.316;2022-10-26T10:56:22;4.95;;;3.92;;
13989;SDS011;7069;52.528;13.316;2022-10-26T10:58:58;4.30;;;3.70;;
13989;SDS011;7069;52.528;13.316;2022-10-26T11:01:35;3.58;;;3.20;;
13989;SDS011;7069;52.528;13.316;2022-10-26T11:04:12;3.38;;;3.05;;
13989;SDS011;7069;52.528;13.316;2022-10-26T11:06:47;6.97;;;3.42;;
13989;SDS011;7069;52.528;13.316;2022-10-26T11:09:13;4.00;;;2.92;;
13989;SDS011;7069;52.528;13.316;2022-10-26T11:11:42;3.45;;;2.80;;
13989;SDS011;7069;52.528;13.316;2022-10-26T11:14:11;4.43;;;3.58;;
13989;SDS011;7069;52.528;13.316;2022-10-26T11:16:41;3.38;;;2.90;;
13989;SDS011;7069;52.528;13.316;2022-10-26T11:19:14;3.22;;;2.92;;
13989;SDS011;7069;52.528;13.316;2022-10-26T11:21:44;5.63;;;3.60;;
13989;SDS011;7069;52.528;13.316;2022-10-26T11:24:14;4.80;;;3.95;;
13989;SDS011;7069;52.528;13.316;2022-10-26T11:26:45;5.38;;;3.45;;
13989;SDS011;7069;52.528;13.316;2022-10-26T11:29:17;4.40;;;3.38;;
13989;SDS011;7069;52.528;13.316;2022-10-26T11:31:49;4.03;;;3.53;;
13989;SDS011;7069;52.528;13.316;2022-10-26T11:34:20;3.53;;;3.15;;
13989;SDS011;7069;52.528;13.316;2022-10-26T11:36:52;3.30;;;2.85;;
13989;SDS011;7069;52.528;13.316;2022-10-26T11:39:24;3.95;;;3.50;;
13989;SDS011;7069;52.528;13.316;2022-10-26T11:41:54;3.78;;;3.05;;
13989;SDS011;7069;52.528;13.316;2022-10-26T11:44:26;4.22;;;3.20;;
13989;SDS011;7069;52.528;13.316;2022-10-26T11:46:55;4.15;;;3.15;;
13989;SDS011;7069;52.528;13.316;2022-10-26T11:49:27;5.47;;;4.00;;
13989;SDS011;7069;52.528;13.316;2022-10-26T11:51:58;3.45;;;3.10;;
13989;SDS011;7069;52.528;13.316;2022-10-26T11:54:29;3.78;;;3.47;;
13989;SDS011;7069;52.528;13.316;2022-10-26T11:56:57;3.45;;;3.05;;
13989;SDS011;7069;52.528;13.316;2022-10-26T11:59:25;3.70;;;2.92;;
13989;SDS011;7069;52.528;13.316;2022-10-26T12:02:11;4.18;;;2.72;;
13989;SDS011;7069;52.528;13.316;2022-10-26T12:04:42;3.33;;;3.03;;
13989;SDS011;7069;52.528;13.316;2022-10-26T12:07:12;3.42;;;2.75;;
13989;SDS011;7069;52.528;13.316;2022-10-26T12:09:42;4.35;;;2.58;;
13989;SDS011;7069;52.528;13.316;2022-10-26T12:12:11;3.38;;;2.50;;
13989;SDS011;7069;52.528;13.316;2022-10-26T12:14:42;2.90;;;2.65;;
13989;SDS011;7069;52.528;13.316;2022-10-26T12:17:12;3.47;;;2.65;;
13989;SDS011;7069;52.528;13.316;2022-10-26T12:19:44;2.53;;;1.95;;
13989;SDS011;7069;52.528;13.316;2022-10-26T12:22:13;4.13;;;2.28;;
13989;SDS011;7069;52.528;13.316;2022-10-26T12:24:42;2.40;;;2.15;;
13989;SDS011;7069;52.528;13.316;2022-10-26T12:27:28;3.25;;;2.53;;
13989;SDS011;7069;52.528;13.316;2022-10-26T12:32:51;3.80;;;2.72;;
13989;SDS011;7069;52.528;13.316;2022-10-26T12:35:30;5.93;;;2.50;;
13989;SDS011;7069;52.528;13.316;2022-10-26T12:38:01;5.90;;;2.42;;
13989;SDS011;7069;52.528;13.316;2022-10-26T12:41:11;3.30;;;2.65;;
13989;SDS011;7069;52.528;13.316;2022-10-26T12:43:43;2.67;;;2.25;;
13989;SDS011;7069;52.528;13.316;2022-10-26T12:52:24;2.28;;;2.08;;
13989;SDS011;7069;52.528;13.316;2022-10-26T12:57:46;5.13;;;2.28;;
13989;SDS011;7069;52.528;13.316;2022-10-26T13:00:20;2.78;;;2.22;;
13989;SDS011;7069;52.528;13.316;2022-10-26T13:02:50;2.38;;;2.17;;
13989;SDS011;7069;52.528;13.316;2022-10-26T13:05:28;3.35;;;2.13;;
13989;SDS011;7069;52.528;13.316;2022-10-26T13:08:03;3.78;;;1.75;;
13989;SDS011;7069;52.528;13.316;2022-10-26T13:10:31;5.20;;;2.03;;
13989;SDS011;7069;52.528;13.316;2022-10-26T13:12:58;7.03;;;2.42;;
13989;SDS011;7069;52.528;13.316;2022-10-26T13:15:26;4.45;;;1.73;;
13989;SDS011;7069;52.528;13.316;2022-10-26T13:17:55;1.50;;;1.40;;
13989;SDS011;7069;52.528;13.316;2022-10-26T13:20:27;2.25;;;1.77;;
13989;SDS011;7069;52.528;13.316;2022-10-26T13:22:55;2.85;;;1.70;;
13989;SDS011;7069;52.528;13.316;2022-10-26T13:25:24;3.63;;;1.80;;
13989;SDS011;7069;52.528;13.316;2022-10-26T13:27:57;2.00;;;1.58;;
13989;SDS011;7069;52.528;13.316;2022-10-26T13:33:23;1.35;;;1.25;;
13989;SDS011;7069;52.528;13.316;2022-10-26T13:35:53;3.10;;;1.73;;
13989;SDS011;7069;52.528;13.316;2022-10-26T13:38:22;3.35;;;1.75;;
13989;SDS011;7069;52.528;13.316;2022-10-26T13:40:53;4.43;;;1.75;;
13989;SDS011;7069;52.528;13.316;2022-10-26T13:43:33;2.20;;;1.73;;
13989;SDS011;7069;52.528;13.316;2022-10-26T13:46:01;4.28;;;2.00;;
13989;SDS011;7069;52.528;13.316;2022-10-26T13:48:30;4.25;;;1.63;;
13989;SDS011;7069;52.528;13.316;2022-10-26T13:51:01;3.28;;;1.52;;
13989;SDS011;7069;52.528;13.316;2022-10-26T13:53:31;2.85;;;1.83;;
13989;SDS011;7069;52.528;13.316;2022-10-26T13:56:06;1.58;;;1.48;;
13989;SDS011;7069;52.528;13.316;2022-10-26T13:58:37;3.13;;;1.75;;
13989;SDS011;7069;52.528;13.316;2022-10-26T14:01:11;1.77;;;1.63;;
13989;SDS011;7069;52.528;13.316;2022-10-26T14:03:40;2.50;;;1.52;;
13989;SDS011;7069;52.528;13.316;2022-10-26T14:06:11;3.47;;;1.45;;
13989;SDS011;7069;52.528;13.316;2022-10-26T14:08:41;1.77;;;1.10;;
13989;SDS011;7069;52.528;13.316;2022-10-26T14:11:11;3.85;;;1.92;;
13989;SDS011;7069;52.528;13.316;2022-10-26T14:13:38;2.72;;;1.50;;
13989;SDS011;7069;52.528;13.316;2022-10-26T14:16:05;3.20;;;1.90;;
13989;SDS011;7069;52.528;13.316;2022-10-26T14:18:32;4.03;;;1.90;;
13989;SDS011;7069;52.528;13.316;2022-10-26T14:21:00;2.25;;;1.15;;
13989;SDS011;7069;52.528;13.316;2022-10-26T14:23:28;3.85;;;1.27;;
13989;SDS011;7069;52.528;13.316;2022-10-26T14:25:58;3.67;;;1.80;;
13989;SDS011;7069;52.528;13.316;2022-10-26T14:28:26;1.77;;;1.00;;
13989;SDS011;7069;52.528;13.316;2022-10-26T14:31:09;3.78;;;1.20;;
13989;SDS011;7069;52.528;13.316;2022-10-26T14:33:36;3.10;;;1.15;;
13989;SDS011;7069;52.528;13.316;2022-10-26T14:36:02;3.38;;;1.83;;
13989;SDS011;7069;52.528;13.316;2022-10-26T14:38:29;3.28;;;1.10;;
13989;SDS011;7069;52.528;13.316;2022-10-26T14:41:01;2.95;;;1.63;;
13989;SDS011;7069;52.528;13.316;2022-10-26T14:43:29;1.58;;;1.17;;
13989;SDS011;7069;52.528;13.316;2022-10-26T14:45:56;3.53;;;1.45;;
13989;SDS011;7069;52.528;13.316;2022-10-26T14:48:23;4.03;;;1.52;;
13989;SDS011;7069;52.528;13.316;2022-10-26T14:51:01;4.80;;;1.38;;
13989;SDS011;7069;52.528;13.316;2022-10-26T14:53:30;2.70;;;1.55;;
13989;SDS011;7069;52.528;13.316;2022-10-26T14:55:59;2.15;;;1.23;;
13989;SDS011;7069;52.528;13.316;2022-10-26T14:58:27;5.57;;;1.67;;
13989;SDS011;7069;52.528;13.316;2022-10-26T15:01:15;6.18;;;1.55;;
13989;SDS011;7069;52.528;13.316;2022-10-26T15:03:50;3.45;;;1.83;;
13989;SDS011;7069;52.528;13.316;2022-10-26T15:06:27;5.00;;;2.22;;
13989;SDS011;7069;52.528;13.316;2022-10-26T15:08:55;4.28;;;1.70;;
13989;SDS011;7069;52.528;13.316;2022-10-26T15:11:22;2.42;;;1.52;;
13989;SDS011;7069;52.528;13.316;2022-10-26T15:13:48;2.03;;;1.58;;
13989;SDS011;7069;52.528;13.316;2022-10-26T15:16:19;2.90;;;2.17;;
13989;SDS011;7069;52.528;13.316;2022-10-26T15:18:48;3.38;;;1.90;;